sensor_id;sensor_type;location;lat;lon;timestamp;pressure;altitude;pressure_sealevel;temperature;humidity
52957;BME280;38819;42.692;23.342;2023-07-31T00:00:24;94924.97;;;24.22;58.72
52957;BME280;38819;42.692;23.342;2023-07-31T00:02:52;94928.09;;;24.17;59.20
52957;BME280;38819;42.692;23.342;2023-07-31T00:05:17;94924.53;;;24.20;59.22
52957;BME280;38819;42.692;23.342;2023-07-31T00:07:42;94930.03;;;24.17;59.01
52957;BME280;38819;42.692;23.342;2023-07-31T00:10:08;94936.72;;;24.12;59.24
52957;BME280;38819;42.692;23.342;2023-07-31T00:12:33;94928.41;;;24.01;59.31
52957;BME280;38819;42.692;23.342;2023-07-31T00:14:59;94936.66;;;24.01;59.34
52957;BME280;38819;42.692;23.342;2023-07-31T00:17:24;94933.81;;;23.87;60.04
52957;BME280;38819;42.692;23.342;2023-07-31T00:19:50;94938.13;;;23.81;60.24
52957;BME280;38819;42.692;23.342;2023-07-31T00:22:16;94928.28;;;23.83;60.14
52957;BME280;38819;42.692;23.342;2023-07-31T00:24:41;94931.38;;;23.78;60.44
52957;BME280;38819;42.692;23.342;2023-07-31T00:27:07;94931.38;;;23.75;60.44
52957;BME280;38819;42.692;23.342;2023-07-31T00:29:32;94918.72;;;23.66;60.68
52957;BME280;38819;42.692;23.342;2023-07-31T00:31:57;94920.34;;;23.78;60.91
52957;BME280;38819;42.692;23.342;2023-07-31T00:34:23;94910.19;;;23.82;60.82
52957;BME280;38819;42.692;23.342;2023-07-31T00:36:48;94896.63;;;23.63;61.85
52957;BME280;38819;42.692;23.342;2023-07-31T00:39:14;94903.75;;;23.67;61.92
52957;BME280;38819;42.692;23.342;2023-07-31T00:41:39;94894.31;;;23.72;62.24
52957;BME280;38819;42.692;23.342;2023-07-31T00:44:04;94894.25;;;23.58;62.58
52957;BME280;38819;42.692;23.342;2023-07-31T00:46:30;94897.81;;;23.62;62.74
52957;BME280;38819;42.692;23.342;2023-07-31T00:48:56;94893.91;;;23.70;62.39
52957;BME280;38819;42.692;23.342;2023-07-31T00:51:22;94895.78;;;23.52;63.38
52957;BME280;38819;42.692;23.342;2023-07-31T00:53:47;94902.91;;;23.56;63.35
52957;BME280;38819;42.692;23.342;2023-07-31T00:56:13;94910.25;;;23.38;64.13
52957;BME280;38819;42.692;23.342;2023-07-31T00:58:39;94910.63;;;23.33;64.42
52957;BME280;38819;42.692;23.342;2023-07-31T01:01:04;94900.00;;;23.35;64.63
52957;BME280;38819;42.692;23.342;2023-07-31T01:03:30;94889.34;;;23.29;64.89
52957;BME280;38819;42.692;23.342;2023-07-31T01:06:15;94887.75;;;23.28;65.25
52957;BME280;38819;42.692;23.342;2023-07-31T01:08:44;94888.09;;;23.23;65.35
52957;BME280;38819;42.692;23.342;2023-07-31T01:11:22;94897.19;;;23.24;65.51
52957;BME280;38819;42.692;23.342;2023-07-31T01:13:50;94890.09;;;23.26;65.56
52957;BME280;38819;42.692;23.342;2023-07-31T01:16:15;94890.94;;;23.30;65.42
52957;BME280;38819;42.692;23.342;2023-07-31T01:18:41;94886.97;;;23.31;65.35
52957;BME280;38819;42.692;23.342;2023-07-31T01:21:29;94876.34;;;23.34;65.27
52957;BME280;38819;42.692;23.342;2023-07-31T01:27:13;94877.56;;;23.36;65.44
52957;BME280;38819;42.692;23.342;2023-07-31T01:32:28;94876.34;;;23.30;65.60
52957;BME280;38819;42.692;23.342;2023-07-31T01:34:55;94869.63;;;23.24;65.81
52957;BME280;38819;42.692;23.342;2023-07-31T01:37:28;94870.81;;;23.26;65.96
52957;BME280;38819;42.692;23.342;2023-07-31T01:39:54;94875.13;;;23.24;66.03
52957;BME280;38819;42.692;23.342;2023-07-31T01:42:19;94868.81;;;23.23;66.28
52957;BME280;38819;42.692;23.342;2023-07-31T01:44:44;94871.56;;;23.23;66.18
52957;BME280;38819;42.692;23.342;2023-07-31T01:47:10;94875.94;;;23.28;66.10
52957;BME280;38819;42.692;23.342;2023-07-31T01:49:35;94865.69;;;23.25;66.44
52957;BME280;38819;42.692;23.342;2023-07-31T01:52:01;94872.31;;;23.20;66.59
52957;BME280;38819;42.692;23.342;2023-07-31T01:54:26;94883.72;;;23.19;66.61
52957;BME280;38819;42.692;23.342;2023-07-31T01:56:52;94888.78;;;23.09;67.48
52957;BME280;38819;42.692;23.342;2023-07-31T01:59:17;94877.75;;;23.09;67.30
52957;BME280;38819;42.692;23.342;2023-07-31T02:01:42;94883.66;;;23.08;67.45
52957;BME280;38819;42.692;23.342;2023-07-31T02:04:08;94888.31;;;23.04;67.60
52957;BME280;38819;42.692;23.342;2023-07-31T02:06:33;94879.97;;;22.97;67.82
52957;BME280;38819;42.692;23.342;2023-07-31T02:08:59;94882.72;;;22.93;68.22
52957;BME280;38819;42.692;23.342;2023-07-31T02:11:24;94891.69;;;22.86;68.72
52957;BME280;38819;42.692;23.342;2023-07-31T02:13:49;94897.16;;;22.79;69.01
52957;BME280;38819;42.692;23.342;2023-07-31T02:16:15;94896.06;;;22.87;68.80
52957;BME280;38819;42.692;23.342;2023-07-31T02:18:40;94902.69;;;22.83;69.10
52957;BME280;38819;42.692;23.342;2023-07-31T02:21:06;94891.25;;;22.77;69.44
52957;BME280;38819;42.692;23.342;2023-07-31T02:23:31;94895.94;;;22.76;69.38
52957;BME280;38819;42.692;23.342;2023-07-31T02:25:56;94886.91;;;22.76;69.67
52957;BME280;38819;42.692;23.342;2023-07-31T02:28:22;94897.16;;;22.79;69.27
52957;BME280;38819;42.692;23.342;2023-07-31T02:30:47;94886.19;;;22.86;69.24
52957;BME280;38819;42.692;23.342;2023-07-31T02:33:14;94892.09;;;22.88;69.20
52957;BME280;38819;42.692;23.342;2023-07-31T02:35:39;94884.19;;;22.83;69.51
52957;BME280;38819;42.692;23.342;2023-07-31T02:38:05;94890.09;;;22.85;69.48
52957;BME280;38819;42.692;23.342;2023-07-31T02:40:30;94892.88;;;22.85;69.37
52957;BME280;38819;42.692;23.342;2023-07-31T02:42:55;94887.81;;;22.91;69.33
52957;BME280;38819;42.692;23.342;2023-07-31T02:45:21;94888.22;;;22.93;69.57
52957;BME280;38819;42.692;23.342;2023-07-31T02:47:46;94895.69;;;22.92;69.21
52957;BME280;38819;42.692;23.342;2023-07-31T02:50:12;94901.19;;;22.89;69.49
52957;BME280;38819;42.692;23.342;2023-07-31T02:52:37;94916.53;;;22.93;69.43
52957;BME280;38819;42.692;23.342;2023-07-31T02:55:03;94903.22;;;22.96;69.23
52957;BME280;38819;42.692;23.342;2023-07-31T02:57:28;94909.84;;;22.91;69.27
52957;BME280;38819;42.692;23.342;2023-07-31T02:59:54;94924.34;;;22.84;69.57
52957;BME280;38819;42.692;23.342;2023-07-31T03:02:19;94919.59;;;22.81;69.65
52957;BME280;38819;42.692;23.342;2023-07-31T03:04:45;94919.97;;;22.80;69.73
52957;BME280;38819;42.692;23.342;2023-07-31T03:07:10;94923.94;;;22.82;69.69
52957;BME280;38819;42.692;23.342;2023-07-31T03:09:36;94915.22;;;22.76;69.97
52957;BME280;38819;42.692;23.342;2023-07-31T03:12:01;94926.72;;;22.86;69.74
52957;BME280;38819;42.692;23.342;2023-07-31T03:14:26;94925.13;;;22.85;69.45
52957;BME280;38819;42.692;23.342;2023-07-31T03:16:52;94927.19;;;22.95;69.43
52957;BME280;38819;42.692;23.342;2023-07-31T03:19:18;94932.28;;;22.93;69.20
52957;BME280;38819;42.692;23.342;2023-07-31T03:21:43;94932.78;;;23.02;69.18
52957;BME280;38819;42.692;23.342;2023-07-31T03:24:08;94923.28;;;23.00;69.04
52957;BME280;38819;42.692;23.342;2023-07-31T03:26:34;94925.22;;;22.96;69.26
52957;BME280;38819;42.692;23.342;2023-07-31T03:29:00;94928.25;;;22.83;70.06
52957;BME280;38819;42.692;23.342;2023-07-31T03:31:25;94926.22;;;22.76;70.62
52957;BME280;38819;42.692;23.342;2023-07-31T03:33:51;94929.66;;;22.66;70.59
52957;BME280;38819;42.692;23.342;2023-07-31T03:36:16;94931.28;;;22.71;70.60
52957;BME280;38819;42.692;23.342;2023-07-31T03:38:42;94933.25;;;22.70;70.54
52957;BME280;38819;42.692;23.342;2023-07-31T03:41:07;94930.22;;;22.83;69.90
52957;BME280;38819;42.692;23.342;2023-07-31T03:43:33;94938.44;;;22.79;70.06
52957;BME280;38819;42.692;23.342;2023-07-31T03:46:01;94928.28;;;22.87;69.75
52957;BME280;38819;42.692;23.342;2023-07-31T03:48:28;94937.34;;;22.87;69.79
52957;BME280;38819;42.692;23.342;2023-07-31T03:50:53;94939.72;;;22.89;69.14
52957;BME280;38819;42.692;23.342;2023-07-31T03:53:19;94935.88;;;22.97;68.96
52957;BME280;38819;42.692;23.342;2023-07-31T03:55:44;94941.81;;;23.03;68.57
52957;BME280;38819;42.692;23.342;2023-07-31T03:58:10;94939.81;;;23.00;68.53
52957;BME280;38819;42.692;23.342;2023-07-31T04:00:35;94946.22;;;23.07;68.16
52957;BME280;38819;42.692;23.342;2023-07-31T04:03:01;94943.09;;;23.09;68.13
52957;BME280;38819;42.692;23.342;2023-07-31T04:05:26;94948.91;;;23.04;68.09
52957;BME280;38819;42.692;23.342;2023-07-31T04:07:51;94954.50;;;23.07;68.07
52957;BME280;38819;42.692;23.342;2023-07-31T04:10:17;94954.91;;;23.13;67.91
52957;BME280;38819;42.692;23.342;2023-07-31T04:12:43;94959.25;;;23.10;68.23
52957;BME280;38819;42.692;23.342;2023-07-31T04:15:09;94951.28;;;23.05;68.31
52957;BME280;38819;42.692;23.342;2023-07-31T04:17:35;94953.31;;;23.12;68.00
52957;BME280;38819;42.692;23.342;2023-07-31T04:20:00;94965.00;;;23.02;68.23
52957;BME280;38819;42.692;23.342;2023-07-31T04:22:25;94963.41;;;22.97;68.63
52957;BME280;38819;42.692;23.342;2023-07-31T04:24:51;94959.47;;;22.98;68.49
52957;BME280;38819;42.692;23.342;2023-07-31T04:27:16;94969.34;;;23.03;68.13
52957;BME280;38819;42.692;23.342;2023-07-31T04:29:42;94971.28;;;22.99;68.41
52957;BME280;38819;42.692;23.342;2023-07-31T04:32:09;94971.38;;;23.06;67.82
52957;BME280;38819;42.692;23.342;2023-07-31T04:34:34;94960.72;;;23.04;67.85
52957;BME280;38819;42.692;23.342;2023-07-31T04:37:00;94972.53;;;23.05;67.88
52957;BME280;38819;42.692;23.342;2023-07-31T04:39:25;94967.06;;;23.08;67.60
52957;BME280;38819;42.692;23.342;2023-07-31T04:41:51;94973.78;;;23.11;67.30
52957;BME280;38819;42.692;23.342;2023-07-31T04:44:16;94963.56;;;23.11;67.26
52957;BME280;38819;42.692;23.342;2023-07-31T04:46:41;94965.13;;;23.09;67.17
52957;BME280;38819;42.692;23.342;2023-07-31T04:49:07;94965.03;;;23.05;67.38
52957;BME280;38819;42.692;23.342;2023-07-31T04:51:32;94968.25;;;23.07;67.25
52957;BME280;38819;42.692;23.342;2023-07-31T04:53:58;94972.56;;;23.08;67.09
52957;BME280;38819;42.692;23.342;2023-07-31T04:56:23;94972.53;;;23.05;66.88
52957;BME280;38819;42.692;23.342;2023-07-31T04:58:48;94980.47;;;23.10;66.73
52957;BME280;38819;42.692;23.342;2023-07-31T05:01:14;94969.13;;;23.19;66.77
52957;BME280;38819;42.692;23.342;2023-07-31T05:03:39;94971.06;;;23.15;66.91
52957;BME280;38819;42.692;23.342;2023-07-31T05:06:05;94971.84;;;23.15;66.91
52957;BME280;38819;42.692;23.342;2023-07-31T05:08:30;94966.34;;;23.15;66.87
52957;BME280;38819;42.692;23.342;2023-07-31T05:10:55;94973.06;;;23.18;66.79
52957;BME280;38819;42.692;23.342;2023-07-31T05:13:21;94958.09;;;23.15;67.26
52957;BME280;38819;42.692;23.342;2023-07-31T05:15:46;94965.13;;;23.09;67.21
52957;BME280;38819;42.692;23.342;2023-07-31T05:18:14;94965.56;;;23.15;66.93
52957;BME280;38819;42.692;23.342;2023-07-31T05:20:39;94973.59;;;22.93;67.32
52957;BME280;38819;42.692;23.342;2023-07-31T05:23:05;94971.69;;;22.97;67.29
52957;BME280;38819;42.692;23.342;2023-07-31T05:25:30;94962.94;;;22.91;67.23
52957;BME280;38819;42.692;23.342;2023-07-31T05:27:56;94970.19;;;23.07;66.86
52957;BME280;38819;42.692;23.342;2023-07-31T05:30:21;94964.63;;;23.03;67.12
52957;BME280;38819;42.692;23.342;2023-07-31T05:32:46;94957.31;;;23.18;66.38
52957;BME280;38819;42.692;23.342;2023-07-31T05:35:12;94959.38;;;23.28;65.75
52957;BME280;38819;42.692;23.342;2023-07-31T05:37:37;94949.09;;;23.25;65.91
52957;BME280;38819;42.692;23.342;2023-07-31T05:40:03;94953.09;;;23.31;65.90
52957;BME280;38819;42.692;23.342;2023-07-31T05:42:29;94952.00;;;23.40;65.46
52957;BME280;38819;42.692;23.342;2023-07-31T05:44:54;94953.97;;;23.39;64.63
52957;BME280;38819;42.692;23.342;2023-07-31T05:47:20;94963.06;;;23.47;64.34
52957;BME280;38819;42.692;23.342;2023-07-31T05:49:45;94961.53;;;23.49;63.60
52957;BME280;38819;42.692;23.342;2023-07-31T05:52:10;94959.88;;;23.41;63.35
52957;BME280;38819;42.692;23.342;2023-07-31T05:54:36;94969.78;;;23.49;63.41
52957;BME280;38819;42.692;23.342;2023-07-31T05:57:01;94956.69;;;23.36;62.98
52957;BME280;38819;42.692;23.342;2023-07-31T05:59:27;94959.75;;;23.27;63.18
52957;BME280;38819;42.692;23.342;2023-07-31T06:01:52;94985.34;;;23.24;62.94
52957;BME280;38819;42.692;23.342;2023-07-31T06:04:18;94978.63;;;23.25;62.78
52957;BME280;38819;42.692;23.342;2023-07-31T06:06:43;94968.41;;;23.25;62.12
52957;BME280;38819;42.692;23.342;2023-07-31T06:09:09;94979.78;;;23.20;62.58
52957;BME280;38819;42.692;23.342;2023-07-31T06:11:34;94976.28;;;23.27;61.62
52957;BME280;38819;42.692;23.342;2023-07-31T06:13:59;94985.78;;;23.33;61.94
52957;BME280;38819;42.692;23.342;2023-07-31T06:16:25;94989.31;;;23.30;61.57
52957;BME280;38819;42.692;23.342;2023-07-31T06:18:52;95002.00;;;23.42;62.25
52957;BME280;38819;42.692;23.342;2023-07-31T06:21:17;94984.31;;;23.43;61.63
52957;BME280;38819;42.692;23.342;2023-07-31T06:23:43;94971.25;;;23.36;61.01
52957;BME280;38819;42.692;23.342;2023-07-31T06:26:08;94977.16;;;23.35;60.82
52957;BME280;38819;42.692;23.342;2023-07-31T06:28:34;95005.50;;;23.39;60.71
52957;BME280;38819;42.692;23.342;2023-07-31T06:31:00;94986.56;;;23.34;60.92
52957;BME280;38819;42.692;23.342;2023-07-31T06:33:26;94987.28;;;23.23;60.98
52957;BME280;38819;42.692;23.342;2023-07-31T06:35:52;94974.25;;;23.20;61.15
52957;BME280;38819;42.692;23.342;2023-07-31T06:38:25;94989.72;;;23.32;60.39
52957;BME280;38819;42.692;23.342;2023-07-31T06:40:51;94979.91;;;23.35;60.33
52957;BME280;38819;42.692;23.342;2023-07-31T06:43:16;94990.97;;;23.42;60.49
52957;BME280;38819;42.692;23.342;2023-07-31T06:45:42;94973.25;;;23.39;60.86
52957;BME280;38819;42.692;23.342;2023-07-31T06:48:07;94981.56;;;23.46;60.52
52957;BME280;38819;42.692;23.342;2023-07-31T06:50:32;94977.28;;;23.49;60.02
52957;BME280;38819;42.692;23.342;2023-07-31T06:52:58;94993.88;;;23.56;59.71
52957;BME280;38819;42.692;23.342;2023-07-31T06:55:24;94983.63;;;23.57;59.86
52957;BME280;38819;42.692;23.342;2023-07-31T06:57:52;94990.94;;;23.35;60.21
52957;BME280;38819;42.692;23.342;2023-07-31T07:00:19;94986.19;;;23.31;60.17
52957;BME280;38819;42.692;23.342;2023-07-31T07:02:45;94984.72;;;23.45;59.77
52957;BME280;38819;42.692;23.342;2023-07-31T07:05:13;94980.03;;;23.49;59.13
52957;BME280;38819;42.692;23.342;2023-07-31T07:07:38;94976.44;;;23.45;59.50
52957;BME280;38819;42.692;23.342;2023-07-31T07:10:05;94987.22;;;23.61;59.02
52957;BME280;38819;42.692;23.342;2023-07-31T07:12:31;94986.03;;;23.62;58.42
52957;BME280;38819;42.692;23.342;2023-07-31T07:14:57;94978.56;;;23.62;58.42
52957;BME280;38819;42.692;23.342;2023-07-31T07:17:29;94978.19;;;23.64;58.54
52957;BME280;38819;42.692;23.342;2023-07-31T07:19:58;94981.38;;;23.73;57.84
52957;BME280;38819;42.692;23.342;2023-07-31T07:22:24;94968.31;;;23.63;57.51
52957;BME280;38819;42.692;23.342;2023-07-31T07:24:51;94985.63;;;23.60;58.32
52957;BME280;38819;42.692;23.342;2023-07-31T07:27:16;94980.88;;;23.57;57.99
52957;BME280;38819;42.692;23.342;2023-07-31T07:29:42;94978.41;;;23.44;58.37
52957;BME280;38819;42.692;23.342;2023-07-31T07:32:07;94983.22;;;23.55;58.43
52957;BME280;38819;42.692;23.342;2023-07-31T07:34:33;94976.09;;;23.50;58.66
52957;BME280;38819;42.692;23.342;2023-07-31T07:36:58;94978.94;;;23.61;58.47
52957;BME280;38819;42.692;23.342;2023-07-31T07:39:24;94969.94;;;23.71;58.21
52957;BME280;38819;42.692;23.342;2023-07-31T07:41:50;94973.63;;;23.82;57.93
52957;BME280;38819;42.692;23.342;2023-07-31T07:44:15;94977.16;;;23.83;57.98
52957;BME280;38819;42.692;23.342;2023-07-31T07:46:41;94985.06;;;23.88;57.42
52957;BME280;38819;42.692;23.342;2023-07-31T07:49:06;94973.63;;;23.86;57.30
52957;BME280;38819;42.692;23.342;2023-07-31T07:51:32;94982.69;;;23.86;57.16
52957;BME280;38819;42.692;23.342;2023-07-31T07:53:58;94988.97;;;23.87;56.40
52957;BME280;38819;42.692;23.342;2023-07-31T07:56:25;94988.22;;;23.90;56.34
52957;BME280;38819;42.692;23.342;2023-07-31T07:58:50;94994.94;;;23.93;55.07
52957;BME280;38819;42.692;23.342;2023-07-31T08:01:16;94991.81;;;23.94;55.90
52957;BME280;38819;42.692;23.342;2023-07-31T08:03:41;95003.63;;;23.98;55.93
52957;BME280;38819;42.692;23.342;2023-07-31T08:06:07;94993.06;;;24.04;56.24
52957;BME280;38819;42.692;23.342;2023-07-31T08:08:35;95000.59;;;24.14;56.25
52957;BME280;38819;42.692;23.342;2023-07-31T08:11:00;94994.31;;;24.21;55.80
52957;BME280;38819;42.692;23.342;2023-07-31T08:13:26;94982.91;;;24.22;55.25
52957;BME280;38819;42.692;23.342;2023-07-31T08:15:51;94994.81;;;24.37;54.51
52957;BME280;38819;42.692;23.342;2023-07-31T08:18:17;94988.44;;;24.30;54.13
52957;BME280;38819;42.692;23.342;2023-07-31T08:20:42;94993.97;;;24.33;53.91
52957;BME280;38819;42.692;23.342;2023-07-31T08:23:09;94999.56;;;24.44;53.72
52957;BME280;38819;42.692;23.342;2023-07-31T08:25:35;94993.63;;;24.46;53.48
52957;BME280;38819;42.692;23.342;2023-07-31T08:28:02;94983.41;;;24.50;53.32
52957;BME280;38819;42.692;23.342;2023-07-31T08:30:27;94985.84;;;24.58;53.39
52957;BME280;38819;42.692;23.342;2023-07-31T08:32:52;94992.97;;;24.70;53.18
52957;BME280;38819;42.692;23.342;2023-07-31T08:35:18;94985.50;;;24.74;52.11
52957;BME280;38819;42.692;23.342;2023-07-31T08:37:43;94988.66;;;24.80;52.58
52957;BME280;38819;42.692;23.342;2023-07-31T08:40:09;94990.66;;;24.80;51.96
52957;BME280;38819;42.692;23.342;2023-07-31T08:42:43;95000.94;;;24.86;51.83
52957;BME280;38819;42.692;23.342;2023-07-31T08:45:09;94991.44;;;24.84;51.30
52957;BME280;38819;42.692;23.342;2023-07-31T08:47:34;94978.06;;;24.93;51.26
52957;BME280;38819;42.692;23.342;2023-07-31T08:50:01;94987.94;;;25.01;50.95
52957;BME280;38819;42.692;23.342;2023-07-31T08:52:27;94978.88;;;25.08;50.62
52957;BME280;38819;42.692;23.342;2023-07-31T08:54:52;94977.28;;;25.10;50.00
52957;BME280;38819;42.692;23.342;2023-07-31T08:57:18;94973.75;;;25.21;50.05
52957;BME280;38819;42.692;23.342;2023-07-31T08:59:43;94979.66;;;25.19;49.55
52957;BME280;38819;42.692;23.342;2023-07-31T09:02:11;94984.03;;;25.20;49.65
52957;BME280;38819;42.692;23.342;2023-07-31T09:04:39;94974.94;;;25.23;49.83
52957;BME280;38819;42.692;23.342;2023-07-31T09:07:05;94980.09;;;25.39;49.97
52957;BME280;38819;42.692;23.342;2023-07-31T09:09:31;94973.00;;;25.45;49.50
52957;BME280;38819;42.692;23.342;2023-07-31T09:11:58;94969.47;;;25.48;49.39
52957;BME280;38819;42.692;23.342;2023-07-31T09:14:27;94963.91;;;25.56;48.95
52957;BME280;38819;42.692;23.342;2023-07-31T09:16:57;94969.44;;;25.56;48.64
52957;BME280;38819;42.692;23.342;2023-07-31T09:19:35;94968.25;;;25.67;48.52
52957;BME280;38819;42.692;23.342;2023-07-31T09:22:03;94974.19;;;25.73;48.63
52957;BME280;38819;42.692;23.342;2023-07-31T09:24:31;94950.50;;;25.61;48.87
52957;BME280;38819;42.692;23.342;2023-07-31T09:26:59;94955.25;;;25.50;49.65
52957;BME280;38819;42.692;23.342;2023-07-31T09:29:26;94950.50;;;25.65;49.11
52957;BME280;38819;42.692;23.342;2023-07-31T09:31:52;94961.13;;;25.81;48.47
52957;BME280;38819;42.692;23.342;2023-07-31T09:34:18;94944.56;;;25.84;48.74
52957;BME280;38819;42.692;23.342;2023-07-31T09:36:49;94954.44;;;25.96;48.48
52957;BME280;38819;42.692;23.342;2023-07-31T09:39:16;94946.13;;;26.00;49.00
52957;BME280;38819;42.692;23.342;2023-07-31T09:41:44;94948.88;;;25.89;48.10
52957;BME280;38819;42.692;23.342;2023-07-31T09:44:10;94954.81;;;25.91;48.50
52957;BME280;38819;42.692;23.342;2023-07-31T09:46:36;94943.38;;;25.96;48.12
52957;BME280;38819;42.692;23.342;2023-07-31T09:49:13;94946.50;;;25.87;48.25
52957;BME280;38819;42.692;23.342;2023-07-31T09:51:40;94942.19;;;25.83;48.46
52957;BME280;38819;42.692;23.342;2023-07-31T09:54:16;94946.91;;;25.97;47.74
52957;BME280;38819;42.692;23.342;2023-07-31T09:56:44;94952.84;;;25.95;47.35
52957;BME280;38819;42.692;23.342;2023-07-31T09:59:19;94938.59;;;25.89;47.43
52957;BME280;38819;42.692;23.342;2023-07-31T10:01:46;94945.72;;;25.87;47.24
52957;BME280;38819;42.692;23.342;2023-07-31T10:04:12;94961.94;;;25.85;47.32
52957;BME280;38819;42.692;23.342;2023-07-31T10:06:39;94943.34;;;25.89;47.50
52957;BME280;38819;42.692;23.342;2023-07-31T10:09:06;94937.03;;;25.88;46.99
52957;BME280;38819;42.692;23.342;2023-07-31T10:11:41;94941.38;;;25.97;46.95
52957;BME280;38819;42.692;23.342;2023-07-31T10:14:09;94937.03;;;25.85;46.02
52957;BME280;38819;42.692;23.342;2023-07-31T10:16:38;94935.84;;;25.82;46.41
52957;BME280;38819;42.692;23.342;2023-07-31T10:19:05;94932.69;;;25.91;46.21
52957;BME280;38819;42.692;23.342;2023-07-31T10:21:31;94934.25;;;26.06;46.01
52957;BME280;38819;42.692;23.342;2023-07-31T10:24:04;94925.13;;;26.17;45.91
52957;BME280;38819;42.692;23.342;2023-07-31T10:26:31;94936.56;;;26.22;45.63
52957;BME280;38819;42.692;23.342;2023-07-31T10:28:58;94935.75;;;26.25;45.28
52957;BME280;38819;42.692;23.342;2023-07-31T10:31:25;94923.44;;;26.37;45.12
52957;BME280;38819;42.692;23.342;2023-07-31T10:33:52;94933.34;;;26.35;44.35
52957;BME280;38819;42.692;23.342;2023-07-31T10:36:19;94932.94;;;26.40;44.86
52957;BME280;38819;42.692;23.342;2023-07-31T10:38:46;94926.94;;;26.52;44.69
52957;BME280;38819;42.692;23.342;2023-07-31T10:41:14;94920.94;;;26.61;44.74
52957;BME280;38819;42.692;23.342;2023-07-31T10:43:39;94932.81;;;26.69;43.94
52957;BME280;38819;42.692;23.342;2023-07-31T10:46:11;94911.81;;;26.75;44.13
52957;BME280;38819;42.692;23.342;2023-07-31T10:48:38;94913.06;;;26.67;43.60
52957;BME280;38819;42.692;23.342;2023-07-31T10:51:10;94916.59;;;26.67;43.88
52957;BME280;38819;42.692;23.342;2023-07-31T10:53:37;94902.31;;;26.76;43.70
52957;BME280;38819;42.692;23.342;2023-07-31T10:58:33;94910.69;;;26.58;43.67
52957;BME280;38819;42.692;23.342;2023-07-31T11:01:01;94942.38;;;26.53;43.58
52957;BME280;38819;42.692;23.342;2023-07-31T11:04:00;94926.16;;;26.52;44.29
52957;BME280;38819;42.692;23.342;2023-07-31T11:06:36;94917.84;;;26.52;43.54
52957;BME280;38819;42.692;23.342;2023-07-31T11:09:01;94900.00;;;26.64;42.83
52957;BME280;38819;42.692;23.342;2023-07-31T11:11:27;94890.88;;;26.70;42.78
52957;BME280;38819;42.692;23.342;2023-07-31T11:13:53;94893.59;;;26.77;42.73
52957;BME280;38819;42.692;23.342;2023-07-31T11:16:22;94892.38;;;26.82;42.02
52957;BME280;38819;42.692;23.342;2023-07-31T11:18:48;94886.78;;;26.89;42.10
52957;BME280;38819;42.692;23.342;2023-07-31T11:21:14;94894.25;;;26.96;41.28
52957;BME280;38819;42.692;23.342;2023-07-31T11:23:41;94897.38;;;27.05;41.16
52957;BME280;38819;42.692;23.342;2023-07-31T11:26:07;94891.88;;;27.02;41.54
52957;BME280;38819;42.692;23.342;2023-07-31T11:28:33;94895.75;;;27.08;41.22
52957;BME280;38819;42.692;23.342;2023-07-31T11:31:00;94885.78;;;27.17;41.04
52957;BME280;38819;42.692;23.342;2023-07-31T11:33:26;94884.22;;;27.16;40.68
52957;BME280;38819;42.692;23.342;2023-07-31T11:35:51;94884.91;;;27.28;41.05
52957;BME280;38819;42.692;23.342;2023-07-31T11:38:24;94884.47;;;27.37;40.79
52957;BME280;38819;42.692;23.342;2023-07-31T11:40:50;94884.41;;;27.44;40.32
52957;BME280;38819;42.692;23.342;2023-07-31T11:43:16;94885.19;;;27.44;41.24
52957;BME280;38819;42.692;23.342;2023-07-31T11:45:48;94892.41;;;27.34;41.95
52957;BME280;38819;42.692;23.342;2023-07-31T11:48:34;94891.00;;;27.12;41.83
52957;BME280;38819;42.692;23.342;2023-07-31T11:51:06;94884.16;;;27.24;41.33
52957;BME280;38819;42.692;23.342;2023-07-31T11:53:50;94887.72;;;27.24;40.57
52957;BME280;38819;42.692;23.342;2023-07-31T11:56:18;94874.63;;;27.28;40.42
52957;BME280;38819;42.692;23.342;2023-07-31T11:58:49;94875.31;;;26.87;41.87
52957;BME280;38819;42.692;23.342;2023-07-31T12:01:18;94897.50;;;26.87;41.21
52957;BME280;38819;42.692;23.342;2023-07-31T12:03:46;94876.47;;;26.93;41.68
52957;BME280;38819;42.692;23.342;2023-07-31T12:06:11;94875.63;;;27.00;41.67
52957;BME280;38819;42.692;23.342;2023-07-31T12:08:37;94881.13;;;27.07;41.92
52957;BME280;38819;42.692;23.342;2023-07-31T12:11:07;94872.78;;;27.11;41.89
52957;BME280;38819;42.692;23.342;2023-07-31T12:13:34;94873.84;;;27.24;41.45
52957;BME280;38819;42.692;23.342;2023-07-31T12:16:01;94857.56;;;27.33;40.78
52957;BME280;38819;42.692;23.342;2023-07-31T12:18:30;94846.06;;;27.35;41.51
52957;BME280;38819;42.692;23.342;2023-07-31T12:20:56;94858.00;;;27.28;41.74
52957;BME280;38819;42.692;23.342;2023-07-31T12:23:24;94860.75;;;27.25;42.07
52957;BME280;38819;42.692;23.342;2023-07-31T12:26:15;94853.63;;;27.27;42.03
52957;BME280;38819;42.692;23.342;2023-07-31T12:28:45;94876.94;;;27.37;40.98
52957;BME280;38819;42.692;23.342;2023-07-31T12:31:15;94853.13;;;27.40;40.82
52957;BME280;38819;42.692;23.342;2023-07-31T12:33:43;94865.38;;;27.46;40.92
52957;BME280;38819;42.692;23.342;2023-07-31T12:36:10;94851.09;;;27.47;40.48
52957;BME280;38819;42.692;23.342;2023-07-31T12:38:37;94865.28;;;27.53;40.21
52957;BME280;38819;42.692;23.342;2023-07-31T12:41:02;94851.44;;;27.53;40.09
52957;BME280;38819;42.692;23.342;2023-07-31T12:43:27;94841.00;;;27.64;40.17
52957;BME280;38819;42.692;23.342;2023-07-31T12:45:56;94841.78;;;27.68;39.93
52957;BME280;38819;42.692;23.342;2023-07-31T12:48:22;94840.94;;;27.71;40.11
52957;BME280;38819;42.692;23.342;2023-07-31T12:50:47;94827.91;;;27.68;40.26
52957;BME280;38819;42.692;23.342;2023-07-31T12:53:15;94838.91;;;27.76;40.04
52957;BME280;38819;42.692;23.342;2023-07-31T12:55:41;94838.16;;;27.71;40.08